MPDA/DAV METAR and TAF weather

Enter ICAO airport designator
Station Type Date Time Source
MPDA METAR 2018/12/11 20:00 UTC NOAA

MPDA 112000Z VRB05KT 9999 FEW030 32/23 Q1009


Station Type Date Time Source
MPDA Decoded METAR 2018/12/11 20:00 UTC NOAA

David, Panama (MPDA) 08-24N 082-25W 26M
Dec 11, 2018 - 03:00 PM EST / 2018.12.11 2000 UTC
Wind: Variable at 6 MPH (5 KT):0
Visibility: greater than 7 mile(s):0
Sky conditions: mostly clear
Temperature: 89 F (32 C)
Heat index: 96.8 F (36.0 C):1
Dew Point: 73 F (23 C)
Relative Humidity: 59%
Pressure (altimeter): 29.80 in. Hg (1009 hPa)
ob: MPDA 112000Z VRB05KT 9999 FEW030 32/23 Q1009
cycle: 20

Station Type Date Time Source
MPDA TAF 2018/12/11 18:48 UTC NOAA

TAF TAF MPDA 111640Z 1118/1206 30010KT 9999 SCT018
TEMPO 1121/1124 28006KT SCT016


Example: see airport list